KLOT/LOT METAR and TAF weather

Enter ICAO airport designator
Station Type Date Time Source
KLOT METAR 2021/05/14 12:55 UTC NOAA

KLOT 141255Z AUTO 00000KT 10SM CLR 13/03 A3036 RMK AO2 T01250032


Station Type Date Time Source
KLOT Decoded METAR 2021/05/14 12:55 UTC NOAA

Chicago/Romeoville, Lewis University Airport, IL, United States (KLOT) 41-36-30N 088-05-39W
May 14, 2021 - 08:55 AM EDT / 2021.05.14 1255 UTC
Wind: Calm:0
Visibility: 10 mile(s):0
Sky conditions: clear
Temperature: 54.5 F (12.5 C)
Dew Point: 37.8 F (3.2 C)
Relative Humidity: 53%
Pressure (altimeter): 30.36 in. Hg (1028 hPa)
ob: KLOT 141255Z AUTO 00000KT 10SM CLR 13/03 A3036 RMK AO2 T01250032
cycle: 13

Station Type Date Time Source
KLOT TAF UTC NOAA

Error!

Example: see airport list